Weather reports worldwide

Advertisment
Mende, France (7554): temperature & dewpoint: 16.03.2019 18:00:00 - 22.03.2019 18:00:00 (CET)Mende, France (7554): temperature 5cm: 16.03.2019 18:00:00 - 22.03.2019 18:00:00 (CET)Mende, France (7554): temperature -20cm & temperature -100cm: 16.03.2019 18:00:00 - 22.03.2019 18:00:00 (CET)Mende, France (7554): wind speed & gusts: 16.03.2019 18:00:00 - 22.03.2019 18:00:00 (CET)Mende, France (7554): wind direction: 16.03.2019 18:00:00 - 22.03.2019 18:00:00 (CET)Mende, France (7554): visibility: 16.03.2019 18:00:00 - 22.03.2019 18:00:00 (CET)Mende, France (7554): sunshine duration: 16.03.2019 18:00:00 - 22.03.2019 18:00:00 (CET)Mende, France (7554): precipitation: 16.03.2019 18:00:00 - 22.03.2019 18:00:00 (CET)
Date & Time tt [°C] td [°C] tt 5cm [°C] tt -20cm [°C] tt -100cm [°C] ff [km/h] ff [kn] fx [km/h] fx [kn] dd vv [km] sd [min] rr [mm]
22.03.2019 18:00:00 17,5 -3,9 19,7 7,8 7,0 5 3 13 7 S 20 60 0,0
22.03.2019 17:00:00 18,6 -5,5 21,6 7,6 7,1 5 3 20 11 S 20 60 0,0
22.03.2019 16:00:00 19,3 -3,6 22,6 7,4 7,0 4 2 33 18 S 20 60 0,0
22.03.2019 15:00:00 18,7 -2,9 22,5 7,3 7,0 5 3 23 12 SSE 20 60 0,0
22.03.2019 14:00:00 18,1 -5,2 23,7 7,3 7,1 6 3 15 8 S 20 60 0,0
22.03.2019 13:00:00 17,9 -4,8 23,0 7,3 7,1 8 5 17 9 WSW 20 60 0,0
22.03.2019 12:00:00 16,2 -5,0 21,5 7,4 7,1 5 3 12 7 S 20 60 0,0
22.03.2019 11:00:00 15,4 -6,2 18,5 7,5 7,1 4 2 9 5 SSE 20 60 0,0
22.03.2019 10:00:00 12,0 -2,6 10,8 7,6 7,1 3 2 11 6 ESE 20 60 0,0
22.03.2019 09:00:00 6,1 -3,6 4,6 7,8 7,1 8 5 16 9 ESE 20 60 0,0
22.03.2019 08:00:00 2,6 -5,3 0,3 7,9 7,1 11 6 15 8 ESE 20 26 0,0
22.03.2019 07:00:00 1,2 -5,3 -0,4 8,0 7,1 10 5 16 8 ESE 20 0 0,0
22.03.2019 06:00:00 0,4 -4,6 -0,4 8,1 7,1 11 6 14 8 ESE 20 0 0,0
22.03.2019 05:00:00 1,3 -4,2 -0,1 8,2 7,1 8 4 10 5 ESE 20 0 0,0
22.03.2019 04:00:00 1,5 -4,0 0,2 8,2 7,1 7 4 10 6 ESE 20 0 0,0
22.03.2019 03:00:00 2,0 -3,7 0,6 8,2 7,1 6 3 11 6 ESE 20 0 0,0
22.03.2019 02:00:00 2,6 -3,5 0,9 8,3 7,1 7 4 13 7 E 20 0 0,0
22.03.2019 01:00:00 3,2 -3,4 2,1 8,2 7,1 6 4 14 8 E 20 0 0,0
22.03.2019 00:00:00 4,3 -3,2 1,4 8,1 7,1 6 3 11 6 E 20 0 0,0
21.03.2019 23:00:00 4,7 -3,3 2,8 8,0 7,1 6 3 16 8 E 20 0 0,0
21.03.2019 22:00:00 6,1 -3,3 4,2 7,8 7,1 6 4 12 7 E 20 0 0,0
21.03.2019 21:00:00 7,4 -2,9 5,0 7,6 7,1 7 4 10 6 ESE 20 0 0,0
21.03.2019 20:00:00 8,1 -4,7 5,0 7,2 7,1 3 1 14 7 S 20 0 0,0
21.03.2019 19:00:00 10,7 -5,8 8,2 7,0 7,1 6 3 13 7 W 19 37 0,0
21.03.2019 18:00:00 15,4 -6,9 17,9 6,7 7,1 3 2 11 6 W 20 60 0,0
21.03.2019 17:00:00 15,4 -7,5 18,8 6,6 7,1 6 3 16 9 S 20 60 0,0
21.03.2019 16:00:00 15,2 -9,0 19,8 6,4 7,1 6 3 20 11 S 20 60 0,0
21.03.2019 15:00:00 14,7 -9,4 19,5 6,3 7,1 8 4 20 11 WSW 20 60 0,0
21.03.2019 14:00:00 13,7 -10,2 18,7 6,3 7,1 5 3 17 9 WSW 20 60 0,0
21.03.2019 13:00:00 12,3 -8,8 17,7 6,4 7,1 5 3 15 8 WNW 20 60 0,0
21.03.2019 12:00:00 10,7 -5,4 16,1 6,4 7,1 7 4 16 8 W 17 60 0,0
21.03.2019 11:00:00 8,8 -7,0 13,2 6,5 7,1 6 3 11 6 WSW 20 60 0,0
21.03.2019 10:00:00 5,8 -4,1 9,7 6,7 7,1 2 1 9 5 S 19 60 0,0
21.03.2019 09:00:00 3,4 -4,3 4,0 6,8 7,1 5 3 10 5 E 14 60 0,0
21.03.2019 08:00:00 0,3 -4,9 -4,9 6,9 7,1 3 2 5 3 E 20 24 0,0
21.03.2019 07:00:00 -1,9 -5,7 -4,4 7,0 7,1 4 2 12 6 ESE 20 0 0,0
21.03.2019 06:00:00 -0,8 -5,6 -3,6 7,2 7,1 6 3 11 6 NE 20 0 0,0
21.03.2019 05:00:00 -0,8 -5,8 -2,4 7,3 7,1 8 4 13 7 SE 20 0 0,0
21.03.2019 04:00:00 0,3 -5,5 -1,7 7,4 7,1 6 3 16 8 E 20 0 0,0
21.03.2019 03:00:00 0,6 -5,6 -1,7 7,4 7,1 8 4 12 7 E 20 0 0,0
21.03.2019 02:00:00 1,2 -5,7 -2,6 7,4 7,1 7 4 11 6 E 20 0 0,0
21.03.2019 01:00:00 1,5 -6,3 -2,6 7,4 7,1 6 3 8 5 ENE 20 0 0,0
21.03.2019 00:00:00 2,3 -6,6 -1,4 7,4 7,1 3 1 20 11 ESE 20 0 0,0
20.03.2019 23:00:00 3,4 -6,6 1,0 7,3 7,1 10 5 25 14 ENE 20 0 0,0
20.03.2019 22:00:00 3,6 -7,5 0,1 7,2 7,1 13 7 33 18 NNE 20 0 0,0
20.03.2019 21:00:00 3,3 -9,0 0,6 7,0 7,1 3 2 34 19 W 20 0 0,0
20.03.2019 20:00:00 4,4 -9,0 1,5 6,8 7,1 11 6 26 14 NNE 20 0 0,0
20.03.2019 19:00:00 6,0 -9,1 4,3 6,6 7,1 8 5 27 15 ENE 20 36 0,0
20.03.2019 18:00:00 8,1 -9,4 11,6 6,3 7,1 11 6 33 18 NE 20 60 0,0
20.03.2019 17:00:00 9,3 -9,3 13,3 6,2 7,1 21 11 40 22 NNE 20 60 0,0
20.03.2019 16:00:00 9,3 -9,8 14,5 6,0 7,1 18 10 41 22 NE 20 60 0,0
20.03.2019 15:00:00 9,8 -9,9 15,4 5,9 7,1 17 9 41 22 NE 20 60 0,0
20.03.2019 14:00:00 9,3 -10,8 14,2 5,9 7,1 16 9 44 24 E 20 60 0,0
20.03.2019 13:00:00 8,4 -12,7 13,4 5,9 7,1 26 14 54 29 NE 20 60 0,0
20.03.2019 12:00:00 7,9 -13,1 11,8 6,0 7,1 26 14 54 29 NNE 20 60 0,0
20.03.2019 11:00:00 6,5 -10,7 9,7 6,1 7,1 18 10 46 25 NE 20 60 0,0
20.03.2019 10:00:00 5,3 -8,2 6,6 6,2 7,1 16 9 41 22 NE 20 60 0,0
20.03.2019 09:00:00 3,1 -6,3 3,0 6,3 7,1 11 6 35 19 ENE 20 60 0,0
20.03.2019 08:00:00 1,5 -6,3 -2,1 6,4 7,1 16 9 29 16 N 20 23 0,0
20.03.2019 07:00:00 -0,3 -6,9 -2,9 6,5 7,2 7 4 16 8 NNW 20 0 0,0
20.03.2019 06:00:00 -0,4 -5,8 -3,7 6,6 7,1 5 3 18 10 SSW 20 0 0,0
20.03.2019 05:00:00 0,8 -5,2 -2,2 6,7 7,1 7 4 27 15 N 20 0 0,0
20.03.2019 04:00:00 0,6 -4,8 -1,3 6,8 7,2 6 3 21 11 E 20 0 0,0
20.03.2019 03:00:00 1,2 -4,9 -1,7 6,9 7,2 14 8 27 14 NE 20 0 0,0
20.03.2019 02:00:00 1,0 -5,5 -2,1 6,9 7,1 10 6 32 17 NE 20 0 0,0
20.03.2019 01:00:00 1,2 -5,5 -0,5 7,0 7,2 12 7 40 22 NNE 20 0 0,0
20.03.2019 00:00:00 1,3 -6,3 -0,5 7,0 7,1 14 7 33 18 NNE 20 0 0,0
19.03.2019 23:00:00 1,6 -6,5 -0,9 7,0 7,1 16 9 30 16 N 20 0 0,0
19.03.2019 22:00:00 1,4 -6,2 -1,7 6,9 7,2 6 4 24 13 N 20 0 0,0
19.03.2019 21:00:00 1,7 -5,5 -0,9 6,8 7,1 10 6 18 10 N 20 0 0,0
19.03.2019 20:00:00 2,4 -5,3 0,2 6,7 7,1 9 5 22 12 N 20 0 0,0
19.03.2019 19:00:00 3,9 -5,6 2,8 6,6 7,1 8 4 23 13 NNE 20 27 0,0
19.03.2019 18:00:00 5,1 -6,5 4,6 6,5 7,1 14 8 49 26 NNE 20 23 0,0
19.03.2019 17:00:00 6,1 -6,8 6,4 6,4 7,1 17 9 42 23 NNE 20 47 0,0
19.03.2019 16:00:00 6,6 -5,1 7,0 6,4 7,1 18 10 43 23 NNE 20 22 0,0
19.03.2019 15:00:00 5,6 -4,8 5,3 6,4 7,1 16 9 43 23 NNE 20 9 0,0
19.03.2019 14:00:00 5,0 -4,3 5,9 6,4 7,1 24 13 54 29 NE 20 42 0,0
19.03.2019 13:00:00 5,8 -3,1 6,8 6,4 7,1 29 15 50 27 NNE 20 43 0,0
19.03.2019 12:00:00 4,6 -4,2 4,9 6,5 7,1 18 10 41 22 NNE 20 22 0,0
19.03.2019 11:00:00 2,8 -4,0 3,0 6,5 7,1 13 7 46 25 NE 20 0 0,0
19.03.2019 10:00:00 2,2 -3,9 2,7 6,6 7,1 19 10 39 21 NNE 20 0 0,0
19.03.2019 09:00:00 2,2 -3,1 0,9 6,7 7,1 13 7 37 20 NNE 20 18 0,0
19.03.2019 08:00:00 0,4 -1,5 -0,8 6,8 7,1 4 2 19 11 NNW 20 0 0,0
19.03.2019 07:00:00 -0,2 -1,8 -0,9 6,9 7,1 6 3 15 8 W 20 0 0,0
19.03.2019 06:00:00 -0,1 -1,5 -0,6 7,0 7,1 5 3 15 8 WNW 20 0 0,0
19.03.2019 05:00:00 -0,1 -1,5 -1,0 7,1 7,1 6 3 20 11 W 20 0 0,0
19.03.2019 04:00:00 -0,2 -1,6 -2,0 7,1 7,1 5 3 21 11 WNW 20 0 0,0
19.03.2019 03:00:00 -0,3 -1,6 -1,2 7,2 7,1 6 4 15 8 WNW 20 0 0,0
19.03.2019 02:00:00 -0,5 -1,8 -2,4 7,2 7,1 6 3 23 12 W 20 0 0,0
19.03.2019 01:00:00 -0,6 -2,7 -2,1 7,2 7,1 11 6 23 12 W 20 0 0,0
19.03.2019 00:00:00 0,0 -2,7 -1,0 7,2 7,1 4 2 25 14 WSW 20 0 0,0
18.03.2019 23:00:00 0,4 -2,8 -0,8 7,2 7,1 8 4 24 13 NNW 20 0 0,0
18.03.2019 22:00:00 1,7 -2,4 1,1 7,1 7,1 10 5 29 15 NNW 20 0 0,0
18.03.2019 21:00:00 2,9 -2,8 1,8 7,1 7,1 17 9 40 22 NNW 20 0 0,0
18.03.2019 20:00:00 2,8 -3,8 1,6 7,0 7,1 11 6 21 11 NW 19 0 0,0
18.03.2019 19:00:00 3,3 -5,1 2,1 6,9 7,1 13 7 34 18 WNW 17 0 0,0
18.03.2019 18:00:00 6,0 -6,0 6,8 6,7 7,1 17 9 50 27 NNW 20 49 0,0
18.03.2019 17:00:00 6,0 -6,9 6,0 6,6 7,1 22 12 43 23 NNW 20 7 0,0
18.03.2019 16:00:00 6,5 -5,8 7,6 6,6 7,1 29 16 48 26 NW 20 11 0,0
18.03.2019 15:00:00 6,6 -4,5 7,8 6,6 7,1 23 13 46 25 NNW 20 40 0,0
18.03.2019 14:00:00 6,1 -3,3 5,7 6,5 7,1 28 15 52 28 NW 20 20 0,0
18.03.2019 13:00:00 5,4 -4,7 6,3 6,6 7,1 25 14 52 28 NNW 20 19 0,0
18.03.2019 12:00:00 5,5 -1,9 7,1 6,7 7,1 28 15 49 26 NW 20 36 0,0
18.03.2019 11:00:00 4,1 -2,1 4,3 6,8 7,1 19 10 50 27 N 20 32 0,0
18.03.2019 10:00:00 2,6 -4,0 6,1 6,9 7,1 27 14 47 26 NNW 20 60 0,0
18.03.2019 09:00:00 1,0 -4,1 -0,2 7,0 7,1 19 11 42 23 NNW 20 55 0,0
18.03.2019 08:00:00 -0,5 -4,7 -1,1 7,1 7,0 22 12 40 22 NNW 20 0 0,0
18.03.2019 07:00:00 -0,5 -4,0 -1,5 7,2 7,1 18 10 42 23 NNW 20 0 0,0
18.03.2019 06:00:00 -0,3 -3,8 -1,3 7,3 7,1 24 13 42 23 NNW 20 0 0,0
18.03.2019 05:00:00 0,0 -3,9 -0,7 7,4 7,0 19 11 42 23 NW 20 0 0,0
18.03.2019 04:00:00 0,2 -3,5 -0,4 7,5 7,1 16 9 41 22 NW 20 0 0,0
18.03.2019 03:00:00 0,5 -2,7 -0,3 7,6 7,0 16 9 34 18 WNW 13 0 0,0
18.03.2019 02:00:00 0,6 -3,9 -0,3 7,7 7,0 18 10 50 27 WNW 20 0 0,0
18.03.2019 01:00:00 0,7 -3,2 0,0 7,7 7,0 13 7 35 19 WNW 20 0 0,0
18.03.2019 00:00:00 0,8 -3,5 -0,2 7,8 7,0 16 9 35 19 NW 20 0 0,0
17.03.2019 23:00:00 0,8 -3,3 -1,2 7,8 7,0 18 10 35 19 NW 20 0 0,0
17.03.2019 22:00:00 0,9 -3,4 -0,1 7,9 7,0 13 7 42 23 WNW 20 0 0,0
17.03.2019 21:00:00 1,5 -2,6 -0,1 7,9 7,0 14 8 37 20 NW 20 0 0,0
17.03.2019 20:00:00 1,5 -2,6 0,5 7,8 7,0 17 9 46 25 NW 20 0 0,0
17.03.2019 19:00:00 2,2 -0,9 1,3 7,8 7,0 22 12 48 26 WNW 20 18 0,0
17.03.2019 18:00:00 5,0 -0,6 3,9 7,8 7,0 22 12 52 28 NW 20 31 0,0
17.03.2019 17:00:00 7,4 1,5 5,6 7,8 6,9 16 8 52 28 W 20 33 0,0
17.03.2019 16:00:00 6,2 4,7 6,1 7,8 7,0 20 11 43 23 WNW 20 2 0,6
17.03.2019 15:00:00 6,6 5,7 6,2 7,9 6,9 16 9 34 18 WSW 20 0 0,0
17.03.2019 14:00:00 5,9 4,7 6,4 7,9 6,9 11 6 24 13 W 9 0 0,0
17.03.2019 13:00:00 6,6 3,7 7,3 8,0 7,0 14 7 27 14 WSW 13 5 0,0
17.03.2019 12:00:00 5,5 3,7 5,9 8,1 7,0 13 7 23 12 SW 16 0 0,0
17.03.2019 11:00:00 5,5 2,8 6,1 8,2 7,0 9 5 21 11 SW 10 0 0,0
17.03.2019 10:00:00 5,2 1,9 6,2 8,3 6,9 14 8 30 16 WSW 20 23 0,0
17.03.2019 09:00:00 4,9 -0,7 7,3 8,4 6,9 16 9 31 17 WSW 20 58 0,0
17.03.2019 08:00:00 4,2 -5,3 - - - 5 3 16 9 W 20 - 0,0
17.03.2019 07:00:00 4,9 -7,0 1,1 8,7 6,9 4 2 11 6 S 20 0 0,0
17.03.2019 06:00:00 4,6 -7,5 2,8 8,8 6,9 6 4 16 9 SE 20 0 0,0
17.03.2019 05:00:00 5,0 -6,9 2,6 8,8 6,9 10 6 21 11 ESE 20 0 0,0
17.03.2019 04:00:00 3,9 -5,9 2,4 8,9 6,9 13 7 17 9 SE 20 0 0,0
17.03.2019 03:00:00 3,4 -4,8 2,5 9,0 6,9 9 5 17 9 E 20 0 0,0
17.03.2019 02:00:00 4,5 -4,3 3,3 9,0 6,9 10 5 15 8 E 20 0 0,0
17.03.2019 01:00:00 4,4 -3,6 3,1 8,9 6,9 13 7 16 9 ESE 20 0 0,0
17.03.2019 00:00:00 4,6 -2,7 3,4 8,9 6,9 12 7 16 9 ESE 20 0 0,0
16.03.2019 23:00:00 5,6 -3,0 4,0 8,8 6,9 11 6 15 8 ESE 20 0 0,0
16.03.2019 22:00:00 7,1 -2,6 5,7 8,6 6,9 12 7 15 8 SE 20 0 0,0
16.03.2019 21:00:00 8,9 -2,4 - - - 11 6 15 8 ESE 20 - 0,0
16.03.2019 20:00:00 10,4 -4,4 6,2 8,2 6,9 8 4 10 5 E 20 0 0,0
16.03.2019 19:00:00 11,1 -3,8 8,4 7,9 6,9 2 1 8 5 W 20 30 0,0
16.03.2019 18:00:00 14,5 -2,0 14,3 7,6 6,9 6 4 14 8 W 18 31 0,0

tt = temperature
td = dewpoint
tt 5cm = temperature 5cm
tt -20cm = temperature -20cm
tt -100cm = temperature -100cm
ff = wind speed
fx = gusts
dd = wind direction
vv = visibility
sd = sunshine duration
rr = precipitation

Next stations